地図

経路データ

SID SEASON NUMBER BASIN SUBBASIN NAME ISO_TIME NATURE LAT LON WMO_WIND WMO_PRES WMO_AGENCY TRACK_TYPE DIST2LAND LANDFALL IFLAG USA_AGENCY USA_ATCF_ID USA_LAT USA_LON USA_RECORD USA_STATUS USA_WIND USA_PRES USA_SSHS USA_R34_NE USA_R34_SE USA_R34_SW USA_R34_NW USA_R50_NE USA_R50_SE USA_R50_SW USA_R50_NW USA_R64_NE USA_R64_SE USA_R64_SW USA_R64_NW USA_POCI USA_ROCI USA_RMW USA_EYE TOKYO_LAT TOKYO_LON TOKYO_GRADE TOKYO_WIND TOKYO_PRES TOKYO_R50_DIR TOKYO_R50_LONG TOKYO_R50_SHORT TOKYO_R30_DIR TOKYO_R30_LONG TOKYO_R30_SHORT TOKYO_LAND CMA_LAT CMA_LON CMA_CAT CMA_WIND CMA_PRES HKO_LAT HKO_LON HKO_CAT HKO_WIND HKO_PRES NEWDELHI_LAT NEWDELHI_LON NEWDELHI_GRADE NEWDELHI_WIND NEWDELHI_PRES NEWDELHI_CI NEWDELHI_DP NEWDELHI_POCI REUNION_LAT REUNION_LON REUNION_TYPE REUNION_WIND REUNION_PRES REUNION_TNUM REUNION_CI REUNION_RMW REUNION_R34_NE REUNION_R34_SE REUNION_R34_SW REUNION_R34_NW REUNION_R50_NE REUNION_R50_SE REUNION_R50_SW REUNION_R50_NW REUNION_R64_NE REUNION_R64_SE REUNION_R64_SW REUNION_R64_NW BOM_LAT BOM_LON BOM_TYPE BOM_WIND BOM_PRES BOM_TNUM BOM_CI BOM_RMW BOM_R34_NE BOM_R34_SE BOM_R34_SW BOM_R34_NW BOM_R50_NE BOM_R50_SE BOM_R50_SW BOM_R50_NW BOM_R64_NE BOM_R64_SE BOM_R64_SW BOM_R64_NW BOM_ROCI BOM_POCI BOM_EYE BOM_POS_METHOD BOM_PRES_METHOD NADI_LAT NADI_LON NADI_CAT NADI_WIND NADI_PRES WELLINGTON_LAT WELLINGTON_LON WELLINGTON_WIND WELLINGTON_PRES DS824_LAT DS824_LON DS824_STAGE DS824_WIND DS824_PRES TD9636_LAT TD9636_LON TD9636_STAGE TD9636_WIND TD9636_PRES TD9635_LAT TD9635_LON TD9635_WIND TD9635_PRES TD9635_ROCI NEUMANN_LAT NEUMANN_LON NEUMANN_CLASS NEUMANN_WIND NEUMANN_PRES MLC_LAT MLC_LON MLC_CLASS MLC_WIND MLC_PRES USA_GUST BOM_GUST BOM_GUST_PER REUNION_GUST REUNION_GUST_PER USA_SEAHGT USA_SEARAD_NE USA_SEARAD_SE USA_SEARAD_SW USA_SEARAD_NW STORM_SPEED STORM_DIR
1985168N05156 1985 45 WP MM IRMA 1985-06-17 00:00:00 NR 4.80000 155.600 main 985 970 __________O___ -1 4.80000 155.600 0 6 269
1985168N05156 1985 45 WP MM IRMA 1985-06-17 03:00:00 NR 4.79540 155.323 main 970 961 __________P___ -1 4.79540 155.323 0 6 269
1985168N05156 1985 45 WP MM IRMA 1985-06-17 06:00:00 NR 4.79260 155.048 main 956 945 __________P___ -1 4.79260 155.048 0 5 270
1985168N05156 1985 45 WP MM IRMA 1985-06-17 09:00:00 NR 4.79350 154.773 main 945 930 __________P___ -1 4.79350 154.773 0 5 271
1985168N05156 1985 45 WP MM IRMA 1985-06-17 12:00:00 NR 4.80000 154.500 main 930 917 __________O___ -1 4.80000 154.500 0 5 272
1985168N05156 1985 45 WP MM IRMA 1985-06-17 15:00:00 NR 4.81371 154.229 main 917 908 __________P___ -1 4.81371 154.229 0 5 274
1985168N05156 1985 45 WP MM IRMA 1985-06-17 18:00:00 NR 4.83494 153.957 main 908 900 __________P___ -1 4.83494 153.957 0 5 275
1985168N05156 1985 45 WP MM IRMA 1985-06-17 21:00:00 NR 4.86370 153.682 main 906 895 __________P___ -1 4.86370 153.682 0 6 277
1985168N05156 1985 45 WP MM IRMA 1985-06-18 00:00:00 NR 4.90000 153.400 main 895 886 __________O___ -1 4.90000 153.400 0 6 278
1985168N05156 1985 45 WP MM IRMA 1985-06-18 03:00:00 NR 4.94687 153.099 main 886 886 __________P___ -1 4.94687 153.099 0 6 279
1985168N05156 1985 45 WP MM IRMA 1985-06-18 06:00:00 NR 5.00000 152.793 main 888 881 __________P___ -1 5.00000 152.793 0 6 280
1985168N05156 1985 45 WP MM IRMA 1985-06-18 09:00:00 NR 5.05313 152.490 main 892 885 __________P___ -1 5.05313 152.490 0 6 280
1985168N05156 1985 45 WP MM IRMA 1985-06-18 12:00:00 NR 5.10000 152.200 main 885 882 __________O___ -1 5.10000 152.200 0 5 278
1985168N05156 1985 45 WP MM IRMA 1985-06-18 15:00:00 NR 5.12803 151.948 main 881 878 __________P___ -1 5.12803 151.948 0 5 276
1985168N05156 1985 45 WP MM IRMA 1985-06-18 18:00:00 NR 5.14987 151.707 main 878 878 __________P___ -1 5.14987 151.707 0 5 275
1985168N05156 1985 45 WP MM IRMA 1985-06-18 21:00:00 NR 5.17177 151.463 main 887 885 __________P___ -1 5.17177 151.463 0 5 276
1985168N05156 1985 45 WP MM IRMA 1985-06-19 00:00:00 NR 5.20000 151.200 main 885 885 __________O___ -1 5.20000 151.200 0 6 277
1985168N05156 1985 45 WP MM IRMA 1985-06-19 03:00:00 NR 5.24690 150.888 main 885 885 __________P___ -1 5.24690 150.888 0 6 279
1985168N05156 1985 45 WP MM IRMA 1985-06-19 06:00:00 NR 5.30004 150.558 main 897 889 __________P___ -1 5.30004 150.558 0 7 279
1985168N05156 1985 45 WP MM IRMA 1985-06-19 09:00:00 NR 5.35315 150.223 main 896 885 __________P___ -1 5.35315 150.223 0 7 279
1985168N05156 1985 45 WP MM IRMA 1985-06-19 12:00:00 NR 5.40000 149.900 main 885 875 __________O___ -1 5.40000 149.900 0 6 278
1985168N05156 1985 45 WP MM IRMA 1985-06-19 15:00:00 NR 5.43615 149.619 main 875 872 __________P___ -1 5.43615 149.619 0 6 277
1985168N05156 1985 45 WP MM IRMA 1985-06-19 18:00:00 NR 5.46486 149.350 main 877 872 __________P___ -1 5.46486 149.350 0 5 275
1985168N05156 1985 45 WP MM IRMA 1985-06-19 21:00:00 NR 5.48615 149.081 main 872 865 __________P___ -1 5.48615 149.081 0 5 274
1985168N05156 1985 45 WP MM IRMA 1985-06-20 00:00:00 NR 5.50000 148.800 main 865 860 __________O___ -1 5.50000 148.800 0 6 271
1985168N05156 1985 45 WP MM IRMA 1985-06-20 03:00:00 NR 5.49905 148.489 main 860 856 __________P___ -1 5.49905 148.489 0 6 269
1985168N05156 1985 45 WP MM IRMA 1985-06-20 06:00:00 NR 5.49248 148.165 main 856 853 __________P___ -1 5.49248 148.165 0 7 269
1985168N05156 1985 45 WP MM IRMA 1985-06-20 09:00:00 NR 5.48966 147.833 main 852 851 __________P___ -1 5.48966 147.833 0 7 271
1985168N05156 1985 45 WP MM IRMA 1985-06-20 12:00:00 NR 5.50000 147.500 main 851 851 __________O___ -1 5.50000 147.500 0 7 275
1985168N05156 1985 45 WP MM IRMA 1985-06-20 15:00:00 NR 5.54370 147.175 main 851 851 __________P___ -1 5.54370 147.175 0 7 279
1985168N05156 1985 45 WP MM IRMA 1985-06-20 18:00:00 NR 5.59993 146.850 main 862 862 __________P___ -1 5.59993 146.850 0 7 280
1985168N05156 1985 45 WP MM IRMA 1985-06-20 21:00:00 NR 5.65620 146.525 main 874 874 __________P___ -1 5.65620 146.525 0 7 279
1985168N05156 1985 45 WP MM IRMA 1985-06-21 00:00:00 NR 5.70000 146.200 main 875 875 __________O___ -1 5.70000 146.200 0 6 275
1985168N05156 1985 45 WP MM IRMA 1985-06-21 03:00:00 NR 5.71024 145.879 main 877 877 __________P___ -1 5.71024 145.879 0 6 271
1985168N05156 1985 45 WP MM IRMA 1985-06-21 06:00:00 NR 5.70740 145.557 main 881 881 __________P___ -1 5.70740 145.557 0 6 269
1985168N05156 1985 45 WP MM IRMA 1985-06-21 09:00:00 NR 5.70086 145.232 main 887 887 __________P___ -1 5.70086 145.232 0 7 269
1985168N05156 1985 45 WP MM IRMA 1985-06-21 12:00:00 NR 5.70000 144.900 main 894 894 __________O___ -1 5.70000 144.900 0 7 271
1985168N05156 1985 45 WP MM IRMA 1985-06-21 15:00:00 NR 5.71775 144.561 main 901 901 __________P___ -1 5.71775 144.561 0 7 274
1985168N05156 1985 45 WP MM IRMA 1985-06-21 18:00:00 NR 5.74241 144.215 main 913 913 __________P___ -1 5.74241 144.215 0 7 274
1985168N05156 1985 45 WP MM IRMA 1985-06-21 21:00:00 NR 5.77087 143.861 main 934 934 __________P___ -1 5.77087 143.861 0 7 275
1985168N05156 1985 45 WP MM IRMA 1985-06-22 00:00:00 NR 5.80000 143.500 main 950 950 __________O___ -1 5.80000 143.500 0 7 274
1985168N05156 1985 45 WP MM IRMA 1985-06-22 03:00:00 NR 5.82092 143.124 main 964 956 __________P___ -1 5.82092 143.124 0 8 273
1985168N05156 1985 45 WP MM IRMA 1985-06-22 06:00:00 NR 5.84249 142.742 main 953 951 __________P___ -1 5.84249 142.742 0 8 274
1985168N05156 1985 45 WP MM IRMA 1985-06-22 09:00:00 NR 5.86780 142.365 main 955 937 __________P___ -1 5.86780 142.365 0 7 274
1985168N05156 1985 45 WP MM IRMA 1985-06-22 12:00:00 NR 5.90000 142.000 main 937 925 __________O___ -1 5.90000 142.000 0 7 275
1985168N05156 1985 45 WP MM IRMA 1985-06-22 15:00:00 NR 5.93459 141.661 main 925 917 __________P___ -1 5.93459 141.661 0 7 277
1985168N05156 1985 45 WP MM IRMA 1985-06-22 18:00:00 NR 5.97737 141.335 main 918 906 __________P___ -1 5.97737 141.335 0 6 279
1985168N05156 1985 45 WP MM IRMA 1985-06-22 21:00:00 NR 6.03147 141.017 main 906 903 __________P___ -1 6.03147 141.017 0 6 281
1985168N05156 1985 45 WP MM IRMA 1985-06-23 00:00:00 NR 6.10000 140.700 main 906 899 __________O___ -1 6.10000 140.700 0 7 283
1985168N05156 1985 45 WP MM IRMA 1985-06-23 03:00:00 NR 6.18152 140.371 main 907 899 __________P___ -1 6.18152 140.371 0 7 285
1985168N05156 1985 45 WP MM IRMA 1985-06-23 06:00:00 NR 6.27745 140.042 main 907 902 __________P___ -1 6.27745 140.042 0 7 287
1985168N05156 1985 45 WP MM IRMA 1985-06-23 09:00:00 NR 6.38465 139.718 main 910 910 __________P___ -1 6.38465 139.718 0 5 304
1985168N05156 1985 45 WP MM IRMA 1985-06-23 12:00:00 TS 6.56000 139.620 main 925 920 __O_______O___ -1 6.80000 140.500 0 19 1005 6.50000 139.400 0 5 315
1985168N05156 1985 45 WP MM IRMA 1985-06-23 15:00:00 TS 6.70044 139.398 main 926 921 __P_______P___ -1 6.91506 139.920 0 19 1005 6.59313 139.137 0 6 296
1985168N05156 1985 45 WP MM IRMA 1985-06-23 18:00:00 TS 6.82686 139.057 main 922 913 __O_______P___ -1 7.00000 139.300 0 19 1005 6.69701 138.874 0 8 287
1985168N05156 1985 45 WP MM IRMA 1985-06-23 21:00:00 TS 6.93498 138.601 main 913 906 __P_______P___ -1 7.04255 138.627 0 19 1005 6.82741 138.575 0 10 283
1985168N05156 1985 45 WP MM IRMA 1985-06-24 00:00:00 TS 7.05000 138.100 main 917 907 __O_______O___ -1 7.10000 138.000 0 19 1005 7.00000 138.200 0 10 286
1985168N05156 1985 45 WP MM IRMA 1985-06-24 03:00:00 TS 7.21825 137.593 main 912 910 __P_______P___ -1 7.21241 137.497 0 19 1004 7.22408 137.688 0 10 297
1985168N05156 1985 45 WP MM IRMA 1985-06-24 06:00:00 TS 7.50688 137.201 1004 tokyo main 935 935 _OO_______P___ -1 8.00000 138.000 2 1004 0 0 0 7.40000 137.100 0 19 1003 7.49048 137.103 0 11 307
1985168N05156 1985 45 WP MM IRMA 1985-06-24 09:00:00 TS 7.85666 136.748 main 971 970 _PP_______P___ -1 8.34032 137.190 2 1003 0 0 7.68491 136.785 0 21 1003 7.78658 136.491 0 12 306
1985168N05156 1985 45 WP MM IRMA 1985-06-24 12:00:00 TS 8.21667 136.225 1002 tokyo main 999 999 OOO_______O___ jtwc_wp WP061985 8.10000 135.900 25 -1 8.70000 136.400 2 1002 0 0 0 8.00000 136.500 1 23 1003 8.10000 135.900 1 25 13 304
1985168N05156 1985 45 WP MM IRMA 1985-06-24 15:00:00 TS 8.56822 135.685 main 1007 955 PPP_______P___ WP061985 8.45764 135.393 27 -1 9.07992 135.655 2 1001 0 0 8.25747 136.165 1 23 1001 8.42257 135.380 1 28 13 302
1985168N05156 1985 45 WP MM IRMA 1985-06-24 18:00:00 TS 8.87681 135.154 1000 tokyo main 956 905 OOOO______P___ jtwc_wp WP061985 8.80000 134.900 30 -1 9.40000 135.000 2 1000 0 0 0 8.50000 135.800 1 23 1000 9.00000 135.000 TD 25 1000 8.75722 134.890 1 32 11 300
1985168N05156 1985 45 WP MM IRMA 1985-06-24 21:00:00 TS 9.12919 134.684 main 905 857 PPPP______P___ WP061985 9.11494 134.435 35 0 9.57978 134.470 2 999 0 0 8.71210 135.489 1 26 1000 9.17259 134.507 TD 27 999 9.08827 134.430 1 36 11 298
1985168N05156 1985 45 WP MM IRMA 1985-06-25 00:00:00 TS 9.37895 134.211 998 tokyo main 857 809 OOOO______O___ jtwc_wp WP061985 9.40000 134.000 40 0 9.70000 134.000 2 998 0 0 0 9.00000 135.000 1 29 1000 9.40000 134.000 TD 30 998 9.40000 134.000 2 40 12 298
1985168N05156 1985 45 WP MM IRMA 1985-06-25 03:00:00 TS 9.67662 133.635 main 801 756 PPPP______P___ WP061985 9.65745 133.585 42 0 9.84999 133.485 2 996 0 0 9.50082 134.051 1 33 997 9.70751 133.478 TD 32 997 9.66733 133.576 2 42 12 298
1985168N05156 1985 45 WP MM IRMA 1985-06-25 06:00:00 TS 9.96296 133.096 45 994 tokyo main 758 717 OOOO______P___ jtwc_wp WP061985 9.90000 133.200 45 0 10.0000 133.000 3 45 994 0 9 75 75 0 10.0000 133.100 2 38 995 10.0000 133.000 TS 35 996 9.91482 133.182 2 45 11 298
1985168N05156 1985 45 WP MM IRMA 1985-06-25 09:00:00 TS 10.1739 132.682 main 719 690 PPPP______P___ WP061985 10.1425 132.827 47 0 10.1350 132.555 3 50 992 0 9 100 100 10.2871 132.587 2 43 994 10.1499 132.620 TS 37 995 10.1549 132.823 2 47 8 300
1985168N05156 1985 45 WP MM IRMA 1985-06-25 12:00:00 TS 10.3800 132.360 55 990 tokyo main 692 665 OOOO______O___ jtwc_wp WP061985 10.4000 132.500 50 0 10.3000 132.200 4 55 990 9 30 30 9 125 125 0 10.5000 132.300 3 48 993 10.3000 132.300 TS 40 994 10.4000 132.500 2 50 7 309
1985168N05156 1985 45 WP MM IRMA 1985-06-25 15:00:00 TS 10.6404 132.091 main 665 649 PPPP______P___ WP061985 10.6999 132.235 52 0 10.5274 131.970 4 57 990 9 40 40 9 137 137 10.7499 132.070 3 48 992 10.5775 131.970 TS 40 993 10.6473 132.210 2 52 7 318
1985168N05156 1985 45 WP MM IRMA 1985-06-25 18:00:00 TS 10.9210 131.871 60 990 tokyo main 652 638 OOOO______P___ jtwc_wp WP061985 11.0000 132.000 55 0 10.8000 131.800 4 60 990 9 50 50 9 150 150 0 11.0000 131.900 3 48 992 10.9000 131.700 TS 40 993 10.9048 131.955 2 55 7 322
1985168N05156 1985 45 WP MM IRMA 1985-06-25 21:00:00 TS 11.1789 131.664 main 642 623 PPPP______P___ WP061985 11.2350 131.750 57 0 11.0775 131.600 4 57 990 9 60 60 9 175 175 11.2200 131.707 3 48 992 11.1774 131.542 TS 40 992 11.1848 131.722 2 57 7 324
1985168N05156 1985 45 WP MM IRMA 1985-06-26 00:00:00 TS 11.4800 131.460 55 990 tokyo main 624 595 OOOO______O___ jtwc_wp WP061985 11.5000 131.500 60 0 11.4000 131.400 4 55 990 9 70 70 9 200 200 0 11.5000 131.500 3 48 992 11.5000 131.400 TS 40 992 11.5000 131.500 2 60 8 328
1985168N05156 1985 45 WP MM IRMA 1985-06-26 03:00:00 TS 11.8762 131.218 main 597 582 PPPP______P___ WP061985 11.8775 131.243 60 0 11.7850 131.200 4 55 990 9 70 70 9 200 200 11.9275 131.250 3 48 992 11.9351 131.150 TS 42 991 11.8560 131.248 2 60 10 331
1985168N05156 1985 45 WP MM IRMA 1985-06-26 06:00:00 TS 12.3095 130.981 55 990 tokyo main 585 573 OOOO______P___ jtwc_wp WP061985 12.3000 131.000 60 0 12.2000 131.000 4 55 990 9 70 70 9 200 200 0 12.4000 131.000 3 48 992 12.4000 130.900 TS 45 991 12.2476 131.005 2 60 9 333
1985168N05156 1985 45 WP MM IRMA 1985-06-26 09:00:00 TS 12.7101 130.775 main 576 560 PPPP______P___ WP061985 12.7000 130.785 60 0 12.6000 130.792 4 55 990 9 75 75 9 200 200 12.7850 130.785 3 48 991 12.8000 130.727 TS 47 990 12.6654 130.785 2 60 9 335
1985168N05156 1985 45 WP MM IRMA 1985-06-26 12:00:00 TS 13.1200 130.600 55 990 tokyo main 562 556 OOOO______O___ jtwc_wp WP061985 13.1000 130.600 60 0 13.0000 130.600 4 55 990 9 80 80 9 200 200 0 13.2000 130.600 3 48 990 13.2000 130.600 STS 50 990 13.1000 130.600 2 60 9 340
1985168N05156 1985 45 WP MM IRMA 1985-06-26 15:00:00 TS 13.5612 130.456 main 564 554 PPPP______P___ WP061985 13.4850 130.427 60 0 13.3850 130.442 4 55 990 9 80 80 9 200 200 13.7575 130.443 3 48 990 13.6425 130.500 STS 52 989 13.5362 130.466 2 60 9 344
1985168N05156 1985 45 WP MM IRMA 1985-06-26 18:00:00 TS 14.0172 130.333 55 990 tokyo main 557 557 OOOO______P___ jtwc_wp WP061985 13.9000 130.300 60 0 13.8000 130.300 4 55 990 9 80 80 9 200 200 0 14.3000 130.300 3 48 990 14.1000 130.400 STS 55 989 13.9862 130.365 2 60 9 345
1985168N05156 1985 45 WP MM IRMA 1985-06-26 21:00:00 TS 14.4641 130.214 main 570 570 PPPP______P___ WP061985 14.3925 130.242 60 0 14.2850 130.143 4 55 990 9 80 80 9 200 200 14.6575 130.142 3 53 987 14.5425 130.257 STS 57 988 14.4431 130.283 2 60 9 346
1985168N05156 1985 45 WP MM IRMA 1985-06-27 00:00:00 TS 14.9200 130.100 55 990 tokyo main 582 582 OOOO______O___ jtwc_wp WP061985 14.9000 130.200 60 0 14.8000 130.000 4 55 990 9 80 80 9 200 200 0 15.0000 130.000 3 58 985 15.0000 130.100 STS 60 987 14.9000 130.200 2 60 10 347
1985168N05156 1985 45 WP MM IRMA 1985-06-27 03:00:00 TS 15.4015 129.990 main 603 603 PPPP______P___ WP061985 15.3575 130.115 62 0 15.3000 129.892 4 60 985 9 85 70 9 225 187 15.4925 129.892 3 63 982 15.5075 129.943 STS 62 984 15.3500 130.108 2 62 10 347
1985168N05156 1985 45 WP MM IRMA 1985-06-27 06:00:00 TS 15.8800 129.880 65 980 tokyo main 630 626 OOOO______O___ jtwc_wp WP061985 15.8000 130.000 65 1 15.8000 129.800 5 65 980 4 90 60 4 250 175 0 16.0000 129.800 4 68 980 16.0000 129.800 T 65 982 15.8000 130.000 3 65 10 346
1985168N05156 1985 45 WP MM IRMA 1985-06-27 09:00:00 TS 16.3155 129.747 main 629 629 PPPP______P___ WP061985 16.2425 129.843 70 1 16.3000 129.678 5 70 980 4 90 60 4 250 175 16.3925 129.692 4 68 980 16.4000 129.677 T 65 978 16.2427 129.844 3 70 9 345
1985168N05156 1985 45 WP MM IRMA 1985-06-27 12:00:00 TS 16.7600 129.640 75 980 tokyo main 645 645 OOOO______O___ jtwc_wp WP061985 16.7000 129.700 75 1 16.8000 129.600 5 75 980 4 90 60 4 250 175 0 16.8000 129.600 4 68 980 16.8000 129.600 T 65 975 16.7000 129.700 4 75 10 351
1985168N05156 1985 45 WP MM IRMA 1985-06-27 15:00:00 TS 17.2589 129.594 main 674 674 PPPP______P___ WP061985 17.1850 129.620 75 1 17.3000 129.627 5 75 975 4 120 75 4 250 175 17.3425 129.520 4 68 977 17.2850 129.570 T 65 972 17.1820 129.634 4 75 10 357
1985168N05156 1985 45 WP MM IRMA 1985-06-27 18:00:00 TS 17.7784 129.605 75 970 tokyo main 707 707 OOOO______P___ jtwc_wp WP061985 17.7000 129.600 75 1 17.8000 129.700 5 75 970 3 150 90 3 250 175 0 17.9000 129.500 4 68 975 17.8000 129.600 T 65 970 17.6921 129.625 4 75 10 3
1985168N05156 1985 45 WP MM IRMA 1985-06-27 21:00:00 TS 18.2757 129.657 main 750 750 PPPP______P___ WP061985 18.2350 129.635 75 1 18.2850 129.743 5 75 967 3 150 90 3 250 175 18.3425 129.570 4 72 970 18.2850 129.685 T 67 967 18.2311 129.653 4 75 10 7
1985168N05156 1985 45 WP MM IRMA 1985-06-28 00:00:00 TS 18.8000 129.740 75 965 tokyo main 781 781 OOOO______O___ jtwc_wp WP061985 18.8000 129.700 75 1 18.8000 129.800 5 75 965 3 150 90 3 250 175 0 18.8000 129.700 4 77 965 18.8000 129.800 T 70 965 18.8000 129.700 4 75 11 9
1985168N05156 1985 45 WP MM IRMA 1985-06-28 03:00:00 TS 19.3719 129.833 main 796 796 PPPP______P___ WP061985 19.3850 129.750 77 1 19.3625 129.907 5 75 965 3 150 90 3 250 175 19.3625 129.857 4 77 965 19.3775 129.915 T 70 965 19.3720 129.736 4 76 12 8
1985168N05156 1985 45 WP MM IRMA 1985-06-28 06:00:00 TS 19.9950 129.917 75 965 tokyo main 817 817 OOOO______P___ jtwc_wp WP061985 20.0000 129.800 80 1 20.0000 130.000 5 75 965 3 150 90 3 250 175 0 20.0000 130.000 4 77 965 20.0000 130.000 T 70 965 19.9752 129.785 4 77 13 5
1985168N05156 1985 45 WP MM IRMA 1985-06-28 09:00:00 TS 20.6581 129.956 main 846 846 PPPP______P___ WP061985 20.6275 129.850 80 1 20.7350 130.008 5 75 962 3 150 90 3 250 175 20.6850 130.073 4 77 962 20.6275 130.008 T 72 962 20.6158 129.842 4 78 14 2
1985168N05156 1985 45 WP MM IRMA 1985-06-28 12:00:00 TS 21.3600 129.980 75 960 tokyo main 871 871 OOOO______O___ jtwc_wp WP061985 21.3000 129.900 80 1 21.5000 130.000 5 75 960 3 150 90 3 250 175 0 21.4000 130.100 4 77 960 21.3000 130.000 T 75 960 21.3000 129.900 4 80 14 2
1985168N05156 1985 45 WP MM IRMA 1985-06-28 15:00:00 TS 22.0814 130.014 main 869 848 PPPP______P___ WP061985 22.0275 129.950 82 1 22.2075 130.042 5 75 960 3 150 90 3 250 175 22.0850 130.093 4 77 959 22.0350 130.042 T 75 960 22.0521 129.942 4 82 15 3
1985168N05156 1985 45 WP MM IRMA 1985-06-28 18:00:00 TS 22.8285 130.057 75 960 tokyo main 855 828 OOOO______P___ jtwc_wp WP061985 22.8000 130.000 85 2 22.9000 130.100 5 75 960 3 150 90 3 250 175 0 22.8000 130.100 4 77 958 22.8000 130.100 T 75 960 22.8425 129.986 4 85 15 4
1985168N05156 1985 45 WP MM IRMA 1985-06-28 21:00:00 TS 23.6018 130.119 main 828 749 PPPP______P___ WP061985 23.6150 130.050 87 2 23.5925 130.150 5 75 960 3 150 90 3 250 175 23.6075 130.200 4 77 959 23.5575 130.157 T 75 960 23.6366 130.036 4 87 15 4
1985168N05156 1985 45 WP MM IRMA 1985-06-29 00:00:00 TS 24.3600 130.180 75 960 tokyo main 738 671 OOOO______O___ jtwc_wp WP061985 24.4000 130.100 90 2 24.3000 130.200 5 75 960 3 150 90 3 250 175 0 24.4000 130.300 4 77 960 24.3000 130.200 T 75 960 24.4000 130.100 4 90 15 3
1985168N05156 1985 45 WP MM IRMA 1985-06-29 03:00:00 TS 25.0682 130.202 main 660 593 PPPP______P___ WP061985 25.0725 130.135 90 2 25.0800 130.243 5 77 960 3 162 95 3 300 187 25.0724 130.293 4 77 958 25.0225 130.193 T 77 957 25.0936 130.147 4 88 14 3
1985168N05156 1985 45 WP MM IRMA 1985-06-29 06:00:00 TS 25.7304 130.242 80 960 tokyo main 593 526 OOOO______P___ jtwc_wp WP061985 25.7000 130.200 90 2 25.8000 130.300 5 80 960 2 175 100 2 350 200 0 25.7000 130.300 4 77 957 25.7000 130.200 T 80 955 25.7518 130.212 4 87 13 5
1985168N05156 1985 45 WP MM IRMA 1985-06-29 09:00:00 TS 26.3428 130.336 main 526 458 PPPP______P___ WP061985 26.3575 130.320 87 2 26.3074 130.371 5 75 960 2 175 95 2 350 187 26.3575 130.413 4 77 958 26.3074 130.255 T 75 957 26.3841 130.322 4 86 12 11
1985168N05156 1985 45 WP MM IRMA 1985-06-29 12:00:00 TS 26.9400 130.500 70 960 tokyo main 458 390 OOOO______O___ jtwc_wp WP061985 27.0000 130.500 85 2 26.8000 130.500 5 70 960 2 175 90 2 350 175 0 27.0000 130.600 4 77 960 26.9000 130.400 T 70 960 27.0000 130.500 4 85 13 15
1985168N05156 1985 45 WP MM IRMA 1985-06-29 15:00:00 TS 27.5570 130.712 main 379 313 PPPP______P___ WP061985 27.6073 130.706 82 1 27.4623 130.691 5 67 962 2 162 75 2 325 162 27.5925 130.828 4 77 961 27.5348 130.640 T 70 960 27.5882 130.693 4 82 13 20
1985168N05156 1985 45 WP MM IRMA 1985-06-29 18:00:00 TS 28.1933 131.014 65 965 tokyo main 313 252 OOOO______P___ jtwc_wp WP061985 28.2000 131.000 80 1 28.2000 131.000 5 65 965 2 150 60 2 300 150 0 28.2000 131.100 4 77 962 28.2000 131.000 T 70 960 28.1667 130.968 4 80 14 25
1985168N05156 1985 45 WP MM IRMA 1985-06-29 21:00:00 TS 28.8561 131.390 main 243 197 PPPP______P___ WP061985 28.7771 131.376 77 1 28.9574 131.440 5 65 965 2 137 60 2 300 150 28.8843 131.327 4 72 965 28.8998 131.448 T 67 965 28.7621 131.358 4 77 16 30
1985168N05156 1985 45 WP MM IRMA 1985-06-30 00:00:00 TS 29.5400 131.900 65 965 tokyo main 203 170 OOOO______O___ jtwc_wp WP061985 29.4000 131.900 75 1 29.7000 132.000 5 65 965 2 125 60 2 300 150 0 29.6000 131.700 4 68 968 29.6000 132.000 T 65 970 29.4000 131.900 4 75 17 36
1985168N05156 1985 45 WP MM IRMA 1985-06-30 03:00:00 TS 30.2050 132.509 main 170 166 PPPP______P___ WP061985 30.1269 132.561 75 1 30.3491 132.577 5 65 965 2 125 60 2 300 150 30.2993 132.324 4 68 968 30.2413 132.562 T 65 970 30.0087 132.522 4 75 18 42
1985168N05156 1985 45 WP MM IRMA 1985-06-30 06:00:00 TS 30.8947 133.302 65 965 tokyo main 188 169 OOOO______P___ jtwc_wp WP061985 30.9000 133.400 75 1 31.0000 133.300 5 65 965 2 125 60 2 300 150 0 31.0000 133.200 4 68 968 30.9000 133.300 T 65 970 30.6736 133.311 4 75 20 48
1985168N05156 1985 45 WP MM IRMA 1985-06-30 09:00:00 TS 31.5729 134.256 main 173 117 PPPP______P___ WP061985 31.5804 134.329 75 1 31.6577 134.157 5 65 965 2 125 60 2 300 150 31.6090 134.244 4 68 969 31.5657 134.256 T 65 970 31.4519 134.294 4 75 24 50
1985168N05156 1985 45 WP MM IRMA 1985-06-30 12:00:00 TS 32.4200 135.460 65 965 tokyo main 114 57 OOOO______O___ jtwc_wp WP061985 32.4000 135.500 75 1 32.5000 135.300 5 65 965 2 125 60 2 300 150 0 32.4000 135.500 4 68 970 32.4000 135.500 T 65 970 32.4000 135.500 4 75 30 49
1985168N05156 1985 45 WP MM IRMA 1985-06-30 15:00:00 TS 33.5327 136.949 main 78 9 PPPP______P___ WP061985 33.4944 136.976 70 1 33.6164 136.848 5 65 966 2 125 60 2 300 137 33.5566 136.914 4 68 970 33.4430 137.051 T 65 970 33.5534 136.956 4 71 36 47
1985168N05156 1985 45 WP MM IRMA 1985-06-30 18:00:00 TS 34.8947 138.648 65 968 tokyo main 14 0 OOOO______P___ jtwc_wp WP061985 34.8000 138.700 65 1 35.0000 138.600 5 65 968 3 125 60 3 300 125 0 35.0000 138.500 4 68 970 34.8000 138.800 T 65 970 34.8661 138.637 4 67 41 44
1985168N05156 1985 45 WP MM IRMA 1985-06-30 21:00:00 TS 36.4830 140.449 main 0 0 PPPP______P___ WP061985 36.2485 140.540 62 0 36.5971 140.330 5 62 970 3 102 50 3 300 102 36.6432 140.247 4 63 970 36.5493 140.653 T 62 970 36.2708 140.503 4 63 43 41
1985168N05156 1985 45 WP MM IRMA 1985-07-01 00:00:00 TS 38.1600 142.213 60 972 tokyo main 61 61 OOOO______O___ jtwc_wp WP061985 37.7000 142.500 60 0 38.3000 142.000 4 60 972 3 80 40 3 300 80 0 38.3000 142.000 3 58 970 38.4000 142.400 STS 60 970 37.7000 142.500 2 60 42 38
1985168N05156 1985 45 WP MM IRMA 1985-07-01 03:00:00 TS 39.7434 143.740 main 138 138 PPPP__________ WP061985 38.9683 144.486 57 0 40.0331 143.546 4 973 3 3 39.6987 143.548 3 58 970 40.0287 143.767 STS 57 970 2 37 36
1985168N05156 1985 45 WP MM IRMA 1985-07-01 06:00:00 MX 41.1600 145.100 974 tokyo main 173 115 OOOO__________ jtwc_wp WP061985 40.1000 146.500 55 0 41.5000 144.900 6 974 0 0 0 41.0000 145.000 3 58 970 41.5000 144.900 STS 55 970 2 33 36
1985168N05156 1985 45 WP MM IRMA 1985-07-01 09:00:00 MX 42.3937 146.304 main 110 104 _PP___________ WP061985 -1 42.3744 146.029 6 974 0 0 42.4129 146.578 3 58 971 STS 2 28 40
1985168N05156 1985 45 WP MM IRMA 1985-07-01 12:00:00 ET 43.3000 147.500 974 tokyo main 139 109 _OO___________ -1 43.0000 147.000 6 974 0 0 0 43.6000 148.000 9 58 972 23 45
1985168N05156 1985 45 WP MM IRMA 1985-07-01 15:00:00 ET 44.0294 148.549 main 113 90 _PP___________ -1 43.7489 148.010 6 974 0 0 44.3098 149.087 9 58 973 19 46
1985168N05156 1985 45 WP MM IRMA 1985-07-01 18:00:00 ET 44.6500 149.450 974 tokyo main 86 45 _OO___________ -1 44.5000 149.000 6 974 0 0 0 44.8000 149.900 9 58 975 17 41
1985168N05156 1985 45 WP MM IRMA 1985-07-01 21:00:00 ET 45.3436 150.163 main 51 38 _PP___________ -1 45.3218 149.925 6 975 0 0 45.3654 150.400 9 58 975 17 42
1985168N05156 1985 45 WP MM IRMA 1985-07-02 00:00:00 ET 45.9500 151.100 976 tokyo main 54 58 _OO___________ -1 46.0000 151.000 6 976 0 0 0 45.9000 151.200 9 58 975 21 60
1985168N05156 1985 45 WP MM IRMA 1985-07-02 03:00:00 ET 46.3751 152.737 main 179 179 _PP___________ -1 46.3256 152.430 6 976 0 0 46.4247 153.043 9 53 977 25 74
1985168N05156 1985 45 WP MM IRMA 1985-07-02 06:00:00 ET 46.6500 154.600 976 tokyo main 327 325 _OO___________ -1 46.5000 154.000 6 976 0 0 0 46.8000 155.200 9 48 980 24 79
1985168N05156 1985 45 WP MM IRMA 1985-07-02 09:00:00 ET 46.8183 156.219 main 360 355 _PP___________ -1 46.7106 155.505 6 976 0 0 46.9260 156.933 9 48 980 22 81
1985168N05156 1985 45 WP MM IRMA 1985-07-02 12:00:00 ET 47.0000 157.750 976 tokyo main 376 376 _OO___________ -1 47.0000 157.000 6 976 0 0 0 47.0000 158.500 9 48 980 22 76
1985168N05156 1985 45 WP MM IRMA 1985-07-02 15:00:00 ET 47.3439 159.298 main 406 402 _PP___________ -1 47.4606 158.500 6 978 0 0 47.2272 160.096 9 48 980 22 70
1985168N05156 1985 45 WP MM IRMA 1985-07-02 18:00:00 ET 47.7500 160.750 980 tokyo main 444 444 _OO___________ -1 48.0000 160.000 6 980 0 0 0 47.5000 161.500 9 48 980 20 70
1985168N05156 1985 45 WP MM IRMA 1985-07-02 21:00:00 ET 48.0313 162.135 main 499 499 _PP___________ -1 48.4641 161.614 6 980 0 0 47.5984 162.656 9 48 980 18 66
1985168N05156 1985 45 WP MM IRMA 1985-07-03 00:00:00 ET 48.5000 163.250 980 tokyo main 515 491 _OO___________ -1 49.0000 163.000 6 980 0 0 0 48.0000 163.500 9 48 980 19 41
1985168N05156 1985 45 WP MM IRMA 1985-07-03 03:00:00 ET 49.4418 164.006 main 491 424 _PP___________ -1 49.7100 163.938 6 981 0 0 49.1735 164.073 9 48 982 22 22
1985168N05156 1985 45 WP MM IRMA 1985-07-03 06:00:00 ET 50.5000 164.500 982 tokyo main 416 381 _OO___________ -1 50.5000 164.500 6 982 0 0 0 50.5000 164.500 9 48 984 20 18
1985168N05156 1985 45 WP MM IRMA 1985-07-03 09:00:00 ET 51.3247 164.970 main 387 361 _PP___________ -1 51.2867 164.865 6 983 0 0 51.3627 165.075 9 43 984 16 17
1985168N05156 1985 45 WP MM IRMA 1985-07-03 12:00:00 ET 52.0000 165.250 984 tokyo main 365 321 _OO___________ -1 52.0000 165.000 6 984 0 0 0 52.0000 165.500 9 38 984 13 9
1985168N05156 1985 45 WP MM IRMA 1985-07-03 15:00:00 ET 52.5747 165.309 main 313 281 _PP___________ -1 52.5749 165.039 6 985 0 0 52.5746 165.578 9 38 985 10 1
1985168N05156 1985 45 WP MM IRMA 1985-07-03 18:00:00 ET 53.0000 165.250 986 tokyo main 281 254 _OO___________ -1 53.0000 165.000 6 986 0 0 0 53.0000 165.500 9 38 986 7 356
1985168N05156 1985 45 WP MM IRMA 1985-07-03 21:00:00 ET 53.2874 165.213 main 254 241 _PP___________ -1 53.2874 164.963 6 986 0 0 53.2874 165.463 9 38 986 5 2
1985168N05156 1985 45 WP MM IRMA 1985-07-04 00:00:00 ET 53.5000 165.250 986 tokyo main 246 240 _OO___________ -1 53.5000 165.000 6 986 0 0 0 53.5000 165.500 9 38 986 5 18
1985168N05156 1985 45 WP MM IRMA 1985-07-04 03:00:00 ET 53.7651 165.469 main 241 241 _PP___________ -1 53.7802 165.226 6 986 0 0 53.7501 165.712 9 33 987 6 31
1985168N05156 1985 45 WP MM IRMA 1985-07-04 06:00:00 ET 54.0000 165.750 986 tokyo main 250 247 _OO___________ -1 54.0000 165.500 6 986 0 0 0 54.0000 166.000 9 29 988 5 36
1985168N05156 1985 45 WP MM IRMA 1985-07-04 09:00:00 ET 54.1838 165.976 main 256 256 _PP___________ -1 54.0799 165.666 6 987 0 0 54.2876 166.287 9 29 988 4 38
1985168N05156 1985 45 WP MM IRMA 1985-07-04 12:00:00 ET 54.3000 166.150 988 tokyo main 266 260 _OO___________ -1 54.1000 165.800 6 988 0 0 0 54.5000 166.500 9 29 988 2 44
1985168N05156 1985 45 WP MM IRMA 1985-07-04 15:00:00 ET 54.3286 166.222 main 266 266 _PP___________ -1 54.1574 165.942 6 988 0 0 54.4998 166.501 9 29 988 1 69
1985168N05156 1985 45 WP MM IRMA 1985-07-04 18:00:00 ET 54.3286 166.271 988 tokyo main 273 273 _OO___________ -1 54.2000 166.100 6 988 0 0 0 54.5000 166.500 9 29 988 1 78
1985168N05156 1985 45 WP MM IRMA 1985-07-04 21:00:00 ET 54.3526 166.419 main 274 274 _PP___________ -1 54.1850 166.285 6 988 0 0 54.6878 166.686 9 29 988 2 81
1985168N05156 1985 45 WP MM IRMA 1985-07-05 00:00:00 ET 54.3600 166.600 988 tokyo main 283 283 _OO___________ -1 54.2000 166.500 6 988 0 0 0 55.0000 167.000 9 29 988 2 101
1985168N05156 1985 45 WP MM IRMA 1985-07-05 03:00:00 ET 54.3126 166.779 main 300 294 _P____________ -1 54.3126 166.779 6 988 0 0 9 3 59
1985168N05156 1985 45 WP MM IRMA 1985-07-05 06:00:00 ET 54.5000 167.000 988 tokyo main 294 280 _O____________ -1 54.5000 167.000 6 988 0 0 0 4 21
1985168N05156 1985 45 WP MM IRMA 1985-07-05 09:00:00 ET 54.6974 167.038 main 280 261 _P____________ -1 54.6974 167.038 6 988 0 0 5 2
1985168N05156 1985 45 WP MM IRMA 1985-07-05 12:00:00 ET 55.0000 167.000 988 tokyo main 261 245 _O____________ -1 55.0000 167.000 6 988 0 0 0 8 2
1985168N05156 1985 45 WP MM IRMA 1985-07-05 15:00:00 ET 55.4622 167.072 main 242 223 _P____________ -1 55.4622 167.072 6 988 0 0 10 1
1985168N05156 1985 45 WP MM IRMA 1985-07-05 18:00:00 ET 56.0000 167.000 988 tokyo main 223 198 _O____________ -1 56.0000 167.000 6 988 0 0 0 11 346
1985168N05156 1985 45 WP MM IRMA 1985-07-05 21:00:00 ET 56.5379 166.578 main 198 175 _P____________ -1 56.5379 166.578 6 987 0 0 11 331
1985168N05156 1985 45 WP MM IRMA 1985-07-06 00:00:00 ET 57.0000 166.000 986 tokyo main 175 137 _O____________ -1 57.0000 166.000 6 986 0 0 0 9 322
1985168N05156 1985 45 WP MM IRMA 1985-07-06 03:00:00 ET 57.2873 165.498 main 137 103 _P____________ -1 57.2873 165.498 6 985 0 0 7 313
1985168N05156 1985 45 WP MM IRMA 1985-07-06 06:00:00 ET 57.5000 165.000 984 tokyo main 103 70 _O____________ -1 57.5000 165.000 6 984 0 0 0 7 310
1985168N05156 1985 45 WP MM IRMA 1985-07-06 09:00:00 ET 57.7502 164.463 main 71 51 _P____________ -1 57.7502 164.463 6 984 0 0 7 313
1985168N05156 1985 45 WP MM IRMA 1985-07-06 12:00:00 ET 58.0000 164.000 984 tokyo main 51 24 _O____________ -1 58.0000 164.000 6 984 0 0 0 7 324
1985168N05156 1985 45 WP MM IRMA 1985-07-06 15:00:00 ET 58.2871 163.712 main 24 0 _P____________ -1 58.2871 163.712 6 986 0 0 6 332
1985168N05156 1985 45 WP MM IRMA 1985-07-06 18:00:00 ET 58.5000 163.500 988 tokyo main 0 0 _O____________ -1 58.5000 163.500 6 988 0 0 0 3 311
1985168N05156 1985 45 WP MM IRMA 1985-07-06 21:00:00 ET 58.5000 163.248 main 17 17 _P____________ -1 58.5000 163.248 6 990 0 0 3 270
1985168N05156 1985 45 WP MM IRMA 1985-07-07 00:00:00 ET 58.5000 163.000 992 tokyo main 28 20 _O____________ -1 58.5000 163.000 6 992 0 0 0 4 314
1985168N05156 1985 45 WP MM IRMA 1985-07-07 03:00:00 ET 58.7500 162.751 main 20 0 _P____________ -1 58.7500 162.751 6 993 0 0 6 332
1985168N05156 1985 45 WP MM IRMA 1985-07-07 06:00:00 ET 59.0000 162.500 994 tokyo main 0 0 _O____________ -1 59.0000 162.500 6 994 0 0 0 3 307
1985168N05156 1985 45 WP MM IRMA 1985-07-07 09:00:00 ET 58.9626 162.211 main 0 0 _P____________ -1 58.9626 162.211 6 996 0 0 3 270
1985168N05156 1985 45 WP MM IRMA 1985-07-07 12:00:00 ET 59.0000 162.000 998 tokyo main 0 0 _O____________ -1 59.0000 162.000 6 998 0 0 0 4 342
1985168N05156 1985 45 WP MM IRMA 1985-07-07 15:00:00 ET 59.3875 161.950 main 0 0 _P____________ -1 59.3875 161.950 6 999 0 0 10 1
1985168N05156 1985 45 WP MM IRMA 1985-07-07 18:00:00 ET 60.0000 162.000 1000 tokyo main 0 _O____________ -1 60.0000 162.000 6 1000 0 0 0 12 2

デジタル台風データ・検索

IBTrACS Databaseについて

本データベースは、米国NOAAが公開する1842年以降の世界の熱帯低気圧のベストトラックデータアーカイブInternational Best Track Archive for Climate Stewardship (IBTrACS)を、ウェブで閲覧しやすい形式に変換したものです。

最終更新日:2021-10-19